sensor_id;sensor_type;location;lat;lon;timestamp;pressure;altitude;pressure_sealevel;temperature;humidity
79198;BME280;68628;48.714;9.472;2023-07-31T00:01:10;98162.31;;;17.70;63.85
79198;BME280;68628;48.714;9.472;2023-07-31T00:03:36;98154.16;;;17.64;64.25
79198;BME280;68628;48.714;9.472;2023-07-31T00:06:02;98160.97;;;17.60;64.10
79198;BME280;68628;48.714;9.472;2023-07-31T00:08:28;98163.25;;;17.57;64.19
79198;BME280;68628;48.714;9.472;2023-07-31T00:10:54;98153.66;;;17.56;64.14
79198;BME280;68628;48.714;9.472;2023-07-31T00:13:21;98162.31;;;17.51;64.34
79198;BME280;68628;48.714;9.472;2023-07-31T00:15:47;98153.75;;;17.49;64.11
79198;BME280;68628;48.714;9.472;2023-07-31T00:18:13;98151.72;;;17.44;64.10
79198;BME280;68628;48.714;9.472;2023-07-31T00:20:39;98155.66;;;17.42;64.26
79198;BME280;68628;48.714;9.472;2023-07-31T00:23:06;98154.84;;;17.41;64.22
79198;BME280;68628;48.714;9.472;2023-07-31T00:25:32;98155.47;;;17.37;64.51
79198;BME280;68628;48.714;9.472;2023-07-31T00:27:58;98156.31;;;17.37;64.20
79198;BME280;68628;48.714;9.472;2023-07-31T00:30:24;98160.44;;;17.33;64.66
79198;BME280;68628;48.714;9.472;2023-07-31T00:32:52;98165.41;;;17.29;64.73
79198;BME280;68628;48.714;9.472;2023-07-31T00:35:18;98165.81;;;17.26;64.63
79198;BME280;68628;48.714;9.472;2023-07-31T00:37:44;98156.88;;;17.21;64.55
79198;BME280;68628;48.714;9.472;2023-07-31T00:40:10;98155.47;;;17.18;64.80
79198;BME280;68628;48.714;9.472;2023-07-31T00:42:36;98154.28;;;17.14;64.84
79198;BME280;68628;48.714;9.472;2023-07-31T00:45:03;98159.22;;;17.10;65.05
79198;BME280;68628;48.714;9.472;2023-07-31T00:47:29;98154.34;;;17.07;65.09
79198;BME280;68628;48.714;9.472;2023-07-31T00:49:55;98154.78;;;17.04;64.91
79198;BME280;68628;48.714;9.472;2023-07-31T00:52:21;98155.00;;;17.03;65.05
79198;BME280;68628;48.714;9.472;2023-07-31T00:54:49;98146.63;;;16.99;65.27
79198;BME280;68628;48.714;9.472;2023-07-31T00:57:16;98150.53;;;16.96;65.33
79198;BME280;68628;48.714;9.472;2023-07-31T00:59:42;98141.94;;;16.94;65.90
79198;BME280;68628;48.714;9.472;2023-07-31T01:02:08;98146.06;;;16.90;65.56
79198;BME280;68628;48.714;9.472;2023-07-31T01:04:35;98143.41;;;16.90;65.45
79198;BME280;68628;48.714;9.472;2023-07-31T01:07:11;98140.94;;;16.89;65.72
79198;BME280;68628;48.714;9.472;2023-07-31T01:12:38;98135.47;;;16.83;65.86
79198;BME280;68628;48.714;9.472;2023-07-31T01:15:05;98135.06;;;16.80;65.89
79198;BME280;68628;48.714;9.472;2023-07-31T01:17:33;98137.16;;;16.78;65.69
79198;BME280;68628;48.714;9.472;2023-07-31T01:20:02;98141.06;;;16.75;65.75
79198;BME280;68628;48.714;9.472;2023-07-31T01:25:53;98130.47;;;16.69;65.93
79198;BME280;68628;48.714;9.472;2023-07-31T01:29:00;98137.84;;;16.66;66.37
79198;BME280;68628;48.714;9.472;2023-07-31T01:31:31;98129.06;;;16.66;66.08
79198;BME280;68628;48.714;9.472;2023-07-31T01:34:01;98128.66;;;16.62;66.14
79198;BME280;68628;48.714;9.472;2023-07-31T01:36:29;98125.53;;;16.40;67.02
79198;BME280;68628;48.714;9.472;2023-07-31T01:39:01;98128.38;;;16.45;66.71
79198;BME280;68628;48.714;9.472;2023-07-31T01:41:27;98122.63;;;16.48;66.60
79198;BME280;68628;48.714;9.472;2023-07-31T01:43:53;98125.50;;;16.47;66.73
79198;BME280;68628;48.714;9.472;2023-07-31T01:46:20;98121.22;;;16.46;66.63
79198;BME280;68628;48.714;9.472;2023-07-31T01:48:46;98120.16;;;16.47;66.75
79198;BME280;68628;48.714;9.472;2023-07-31T01:51:12;98122.03;;;16.46;66.12
79198;BME280;68628;48.714;9.472;2023-07-31T01:53:38;98114.28;;;16.45;66.30
79198;BME280;68628;48.714;9.472;2023-07-31T01:56:05;98114.91;;;16.40;66.61
79198;BME280;68628;48.714;9.472;2023-07-31T01:58:31;98112.69;;;16.37;66.62
79198;BME280;68628;48.714;9.472;2023-07-31T02:00:57;98123.75;;;16.34;66.53
79198;BME280;68628;48.714;9.472;2023-07-31T02:03:23;98117.59;;;16.33;66.51
79198;BME280;68628;48.714;9.472;2023-07-31T02:05:49;98123.13;;;16.32;66.46
79198;BME280;68628;48.714;9.472;2023-07-31T02:08:16;98121.50;;;16.31;66.56
79198;BME280;68628;48.714;9.472;2023-07-31T02:10:42;98121.72;;;16.29;66.66
79198;BME280;68628;48.714;9.472;2023-07-31T02:13:08;98116.63;;;16.28;66.59
79198;BME280;68628;48.714;9.472;2023-07-31T02:15:35;98117.88;;;16.25;66.63
79198;BME280;68628;48.714;9.472;2023-07-31T02:18:01;98119.94;;;16.23;66.77
79198;BME280;68628;48.714;9.472;2023-07-31T02:20:27;98108.91;;;16.20;66.77
79198;BME280;68628;48.714;9.472;2023-07-31T02:22:53;98113.41;;;16.19;66.71
79198;BME280;68628;48.714;9.472;2023-07-31T02:25:19;98102.41;;;16.15;66.85
79198;BME280;68628;48.714;9.472;2023-07-31T02:27:45;98093.00;;;16.13;66.82
79198;BME280;68628;48.714;9.472;2023-07-31T02:30:11;98098.72;;;16.10;66.99
79198;BME280;68628;48.714;9.472;2023-07-31T02:32:37;98088.31;;;16.08;66.72
79198;BME280;68628;48.714;9.472;2023-07-31T02:35:04;98093.03;;;16.06;66.83
79198;BME280;68628;48.714;9.472;2023-07-31T02:37:30;98085.25;;;16.05;67.05
79198;BME280;68628;48.714;9.472;2023-07-31T02:39:56;98088.97;;;16.04;66.76
79198;BME280;68628;48.714;9.472;2023-07-31T02:42:22;98085.69;;;16.02;67.23
79198;BME280;68628;48.714;9.472;2023-07-31T02:44:48;98086.94;;;15.99;66.99
79198;BME280;68628;48.714;9.472;2023-07-31T02:47:17;98078.38;;;15.97;66.91
79198;BME280;68628;48.714;9.472;2023-07-31T02:49:43;98085.50;;;15.96;66.81
79198;BME280;68628;48.714;9.472;2023-07-31T02:52:09;98082.66;;;15.98;66.89
79198;BME280;68628;48.714;9.472;2023-07-31T02:54:35;98082.28;;;15.94;66.99
79198;BME280;68628;48.714;9.472;2023-07-31T02:57:01;98087.81;;;15.93;66.70
79198;BME280;68628;48.714;9.472;2023-07-31T02:59:28;98079.44;;;15.89;67.15
79198;BME280;68628;48.714;9.472;2023-07-31T03:01:54;98080.91;;;15.85;66.78
79198;BME280;68628;48.714;9.472;2023-07-31T03:04:20;98081.28;;;15.82;66.75
79198;BME280;68628;48.714;9.472;2023-07-31T03:06:46;98077.63;;;15.83;66.64
79198;BME280;68628;48.714;9.472;2023-07-31T03:09:12;98068.00;;;15.82;67.07
79198;BME280;68628;48.714;9.472;2023-07-31T03:11:39;98076.38;;;15.79;67.07
79198;BME280;68628;48.714;9.472;2023-07-31T03:14:05;98072.31;;;15.76;67.22
79198;BME280;68628;48.714;9.472;2023-07-31T03:16:31;98062.91;;;15.74;66.97
79198;BME280;68628;48.714;9.472;2023-07-31T03:18:57;98055.59;;;15.69;66.98
79198;BME280;68628;48.714;9.472;2023-07-31T03:21:23;98054.19;;;15.66;67.51
79198;BME280;68628;48.714;9.472;2023-07-31T03:23:49;98063.38;;;15.64;67.43
79198;BME280;68628;48.714;9.472;2023-07-31T03:26:15;98062.56;;;15.63;67.39
79198;BME280;68628;48.714;9.472;2023-07-31T03:28:41;98059.31;;;15.61;67.45
79198;BME280;68628;48.714;9.472;2023-07-31T03:31:08;98062.19;;;15.60;67.75
79198;BME280;68628;48.714;9.472;2023-07-31T03:33:34;98051.75;;;15.58;67.61
79198;BME280;68628;48.714;9.472;2023-07-31T03:36:00;98064.00;;;15.59;67.70
79198;BME280;68628;48.714;9.472;2023-07-31T03:38:27;98068.72;;;15.57;67.74
79198;BME280;68628;48.714;9.472;2023-07-31T03:40:53;98069.13;;;15.54;67.76
79198;BME280;68628;48.714;9.472;2023-07-31T03:43:19;98075.28;;;15.55;67.52
79198;BME280;68628;48.714;9.472;2023-07-31T03:45:45;98076.28;;;15.54;67.58
79198;BME280;68628;48.714;9.472;2023-07-31T03:48:11;98068.53;;;15.52;67.73
79198;BME280;68628;48.714;9.472;2023-07-31T03:50:38;98065.47;;;15.55;67.57
79198;BME280;68628;48.714;9.472;2023-07-31T03:53:04;98069.56;;;15.51;67.63
79198;BME280;68628;48.714;9.472;2023-07-31T03:55:30;98074.25;;;15.49;67.50
79198;BME280;68628;48.714;9.472;2023-07-31T03:57:56;98079.78;;;15.47;67.79
79198;BME280;68628;48.714;9.472;2023-07-31T04:00:22;98087.53;;;15.49;67.88
79198;BME280;68628;48.714;9.472;2023-07-31T04:02:48;98083.84;;;15.50;67.57
79198;BME280;68628;48.714;9.472;2023-07-31T04:05:14;98087.53;;;15.49;67.58
79198;BME280;68628;48.714;9.472;2023-07-31T04:07:40;98073.44;;;15.48;67.56
79198;BME280;68628;48.714;9.472;2023-07-31T04:10:07;98078.34;;;15.52;67.61
79198;BME280;68628;48.714;9.472;2023-07-31T04:12:33;98072.84;;;15.53;67.53
79198;BME280;68628;48.714;9.472;2023-07-31T04:14:59;98076.06;;;15.55;67.62
79198;BME280;68628;48.714;9.472;2023-07-31T04:17:25;98074.03;;;15.57;67.91
79198;BME280;68628;48.714;9.472;2023-07-31T04:19:51;98080.78;;;15.60;67.58
79198;BME280;68628;48.714;9.472;2023-07-31T04:22:17;98084.84;;;15.62;67.63
79198;BME280;68628;48.714;9.472;2023-07-31T04:24:43;98082.34;;;15.68;67.69
79198;BME280;68628;48.714;9.472;2023-07-31T04:27:10;98083.38;;;15.73;67.31
79198;BME280;68628;48.714;9.472;2023-07-31T04:29:36;98072.09;;;15.78;67.39
79198;BME280;68628;48.714;9.472;2023-07-31T04:32:02;98066.41;;;15.81;67.16
79198;BME280;68628;48.714;9.472;2023-07-31T04:34:28;98068.19;;;15.87;66.80
79198;BME280;68628;48.714;9.472;2023-07-31T04:36:54;98062.25;;;15.92;66.78
79198;BME280;68628;48.714;9.472;2023-07-31T04:39:20;98059.38;;;15.93;66.53
79198;BME280;68628;48.714;9.472;2023-07-31T04:41:46;98059.97;;;15.95;66.69
79198;BME280;68628;48.714;9.472;2023-07-31T04:44:12;98054.25;;;15.98;66.88
79198;BME280;68628;48.714;9.472;2023-07-31T04:46:39;98052.16;;;16.01;67.01
79198;BME280;68628;48.714;9.472;2023-07-31T04:49:05;98048.06;;;16.05;67.13
79198;BME280;68628;48.714;9.472;2023-07-31T04:51:31;98046.75;;;16.14;66.79
79198;BME280;68628;48.714;9.472;2023-07-31T04:53:57;98057.00;;;16.17;66.52
79198;BME280;68628;48.714;9.472;2023-07-31T04:56:23;98059.44;;;16.19;66.86
79198;BME280;68628;48.714;9.472;2023-07-31T04:58:49;98039.97;;;16.25;66.60
79198;BME280;68628;48.714;9.472;2023-07-31T05:01:16;98054.06;;;16.25;66.69
79198;BME280;68628;48.714;9.472;2023-07-31T05:03:43;98048.91;;;16.30;66.64
79198;BME280;68628;48.714;9.472;2023-07-31T05:06:09;98056.84;;;16.37;66.82
79198;BME280;68628;48.714;9.472;2023-07-31T05:08:35;98050.09;;;16.35;65.87
79198;BME280;68628;48.714;9.472;2023-07-31T05:11:02;98058.09;;;16.35;66.20
79198;BME280;68628;48.714;9.472;2023-07-31T05:13:28;98050.28;;;16.40;65.93
79198;BME280;68628;48.714;9.472;2023-07-31T05:15:54;98051.31;;;16.39;66.06
79198;BME280;68628;48.714;9.472;2023-07-31T05:18:21;98043.31;;;16.39;66.49
79198;BME280;68628;48.714;9.472;2023-07-31T05:20:47;98043.81;;;16.54;66.39
79198;BME280;68628;48.714;9.472;2023-07-31T05:23:13;98047.72;;;16.52;66.01
79198;BME280;68628;48.714;9.472;2023-07-31T05:25:39;98053.84;;;16.27;66.76
79198;BME280;68628;48.714;9.472;2023-07-31T05:28:05;98045.72;;;16.47;65.90
79198;BME280;68628;48.714;9.472;2023-07-31T05:30:32;98043.38;;;16.57;65.91
79198;BME280;68628;48.714;9.472;2023-07-31T05:32:58;98050.56;;;16.57;65.60
79198;BME280;68628;48.714;9.472;2023-07-31T05:35:24;98038.06;;;16.57;65.46
79198;BME280;68628;48.714;9.472;2023-07-31T05:37:50;98033.34;;;16.59;66.55
79198;BME280;68628;48.714;9.472;2023-07-31T05:40:16;98046.75;;;16.71;66.51
79198;BME280;68628;48.714;9.472;2023-07-31T05:42:42;98054.22;;;16.81;66.09
79198;BME280;68628;48.714;9.472;2023-07-31T05:45:09;98054.44;;;16.79;66.58
79198;BME280;68628;48.714;9.472;2023-07-31T05:47:35;98053.47;;;16.99;66.43
79198;BME280;68628;48.714;9.472;2023-07-31T05:50:01;98046.13;;;16.94;66.31
79198;BME280;68628;48.714;9.472;2023-07-31T05:52:28;98050.50;;;17.07;65.92
79198;BME280;68628;48.714;9.472;2023-07-31T05:54:54;98045.91;;;16.96;66.37
79198;BME280;68628;48.714;9.472;2023-07-31T05:57:20;98055.13;;;17.19;65.58
79198;BME280;68628;48.714;9.472;2023-07-31T05:59:46;98047.41;;;17.10;65.81
79198;BME280;68628;48.714;9.472;2023-07-31T06:02:13;98042.44;;;17.14;66.14
79198;BME280;68628;48.714;9.472;2023-07-31T06:04:39;98044.53;;;17.30;65.82
79198;BME280;68628;48.714;9.472;2023-07-31T06:07:05;98038.59;;;17.47;65.71
79198;BME280;68628;48.714;9.472;2023-07-31T06:09:31;98039.88;;;17.75;64.92
79198;BME280;68628;48.714;9.472;2023-07-31T06:11:57;98033.66;;;17.81;64.85
79198;BME280;68628;48.714;9.472;2023-07-31T06:14:23;98038.81;;;17.94;64.12
79198;BME280;68628;48.714;9.472;2023-07-31T06:16:49;98032.03;;;18.10;63.18
79198;BME280;68628;48.714;9.472;2023-07-31T06:19:16;98038.44;;;18.21;62.71
79198;BME280;68628;48.714;9.472;2023-07-31T06:21:42;98045.28;;;18.29;62.87
79198;BME280;68628;48.714;9.472;2023-07-31T06:24:09;98039.03;;;18.35;62.91
79198;BME280;68628;48.714;9.472;2023-07-31T06:26:40;98035.00;;;18.56;61.92
79198;BME280;68628;48.714;9.472;2023-07-31T06:29:19;98041.28;;;18.86;61.30
79198;BME280;68628;48.714;9.472;2023-07-31T06:32:23;98036.75;;;19.10;60.69
79198;BME280;68628;48.714;9.472;2023-07-31T06:34:55;98040.16;;;19.75;58.35
79198;BME280;68628;48.714;9.472;2023-07-31T06:37:32;98029.09;;;20.46;56.79
79198;BME280;68628;48.714;9.472;2023-07-31T06:40:14;98034.72;;;21.62;52.81
79198;BME280;68628;48.714;9.472;2023-07-31T06:42:54;98034.81;;;22.59;50.46
79198;BME280;68628;48.714;9.472;2023-07-31T06:45:34;98043.47;;;23.73;47.71
79198;BME280;68628;48.714;9.472;2023-07-31T06:48:11;98037.38;;;24.14;45.97
79198;BME280;68628;48.714;9.472;2023-07-31T06:50:52;98039.19;;;23.82;45.46
79198;BME280;68628;48.714;9.472;2023-07-31T06:53:39;98042.97;;;23.18;48.06
79198;BME280;68628;48.714;9.472;2023-07-31T06:56:07;98040.91;;;23.30;47.92
79198;BME280;68628;48.714;9.472;2023-07-31T06:58:39;98032.25;;;24.27;46.14
79198;BME280;68628;48.714;9.472;2023-07-31T07:01:18;98036.53;;;24.95;44.19
79198;BME280;68628;48.714;9.472;2023-07-31T07:03:48;98027.59;;;25.05;43.67
79198;BME280;68628;48.714;9.472;2023-07-31T07:06:33;98029.50;;;25.05;43.66
79198;BME280;68628;48.714;9.472;2023-07-31T07:09:04;98031.84;;;25.27;43.34
79198;BME280;68628;48.714;9.472;2023-07-31T07:11:33;98033.44;;;25.38;43.52
79198;BME280;68628;48.714;9.472;2023-07-31T07:13:59;98036.25;;;25.73;42.83
79198;BME280;68628;48.714;9.472;2023-07-31T07:16:50;98031.56;;;26.28;40.38
79198;BME280;68628;48.714;9.472;2023-07-31T07:19:43;98038.66;;;26.54;40.39
79198;BME280;68628;48.714;9.472;2023-07-31T07:22:35;98025.16;;;27.56;37.47
79198;BME280;68628;48.714;9.472;2023-07-31T07:25:07;98034.13;;;27.51;36.90
79198;BME280;68628;48.714;9.472;2023-07-31T07:27:34;98028.16;;;26.82;38.15
79198;BME280;68628;48.714;9.472;2023-07-31T07:30:04;98024.03;;;26.25;39.81
79198;BME280;68628;48.714;9.472;2023-07-31T07:32:31;98018.09;;;26.23;40.08
79198;BME280;68628;48.714;9.472;2023-07-31T07:35:03;98020.03;;;26.18;39.59
79198;BME280;68628;48.714;9.472;2023-07-31T07:37:32;98014.34;;;26.19;40.19
79198;BME280;68628;48.714;9.472;2023-07-31T07:40:06;98013.31;;;26.15;38.02
79198;BME280;68628;48.714;9.472;2023-07-31T07:42:44;98005.69;;;25.27;40.49
79198;BME280;68628;48.714;9.472;2023-07-31T07:45:15;98003.84;;;25.18;40.13
79198;BME280;68628;48.714;9.472;2023-07-31T07:47:42;98012.50;;;25.09;40.28
79198;BME280;68628;48.714;9.472;2023-07-31T07:50:14;98008.81;;;24.74;41.50
79198;BME280;68628;48.714;9.472;2023-07-31T07:52:46;98003.16;;;24.86;41.31
79198;BME280;68628;48.714;9.472;2023-07-31T07:55:14;97997.53;;;24.36;42.35
79198;BME280;68628;48.714;9.472;2023-07-31T07:57:40;98004.78;;;24.56;41.97
79198;BME280;68628;48.714;9.472;2023-07-31T08:00:14;97988.59;;;24.87;42.00
79198;BME280;68628;48.714;9.472;2023-07-31T08:02:49;97985.47;;;25.25;41.88
79198;BME280;68628;48.714;9.472;2023-07-31T08:05:32;97992.91;;;25.54;40.92
79198;BME280;68628;48.714;9.472;2023-07-31T08:08:02;98004.66;;;25.13;41.14
79198;BME280;68628;48.714;9.472;2023-07-31T08:10:31;97999.03;;;25.70;39.79
79198;BME280;68628;48.714;9.472;2023-07-31T08:13:01;97997.25;;;26.34;38.20
79198;BME280;68628;48.714;9.472;2023-07-31T08:15:30;98001.50;;;27.42;35.30
79198;BME280;68628;48.714;9.472;2023-07-31T08:17:58;97996.56;;;27.69;34.05
79198;BME280;68628;48.714;9.472;2023-07-31T08:20:31;98002.53;;;27.85;34.17
79198;BME280;68628;48.714;9.472;2023-07-31T08:23:04;97990.31;;;27.06;36.63
79198;BME280;68628;48.714;9.472;2023-07-31T08:25:38;97995.25;;;27.85;35.47
79198;BME280;68628;48.714;9.472;2023-07-31T08:28:16;97987.81;;;28.43;32.42
79198;BME280;68628;48.714;9.472;2023-07-31T08:30:49;97990.91;;;28.03;33.75
79198;BME280;68628;48.714;9.472;2023-07-31T08:33:22;97982.00;;;28.97;32.69
79198;BME280;68628;48.714;9.472;2023-07-31T08:35:54;97980.66;;;30.32;29.40
79198;BME280;68628;48.714;9.472;2023-07-31T08:38:25;97982.75;;;30.12;29.92
79198;BME280;68628;48.714;9.472;2023-07-31T08:41:00;97977.84;;;30.77;29.07
79198;BME280;68628;48.714;9.472;2023-07-31T08:43:36;97973.91;;;32.20;26.78
79198;BME280;68628;48.714;9.472;2023-07-31T08:46:09;97966.38;;;31.99;27.53
79198;BME280;68628;48.714;9.472;2023-07-31T08:48:45;97962.59;;;32.48;27.29
79198;BME280;68628;48.714;9.472;2023-07-31T08:51:18;97963.69;;;33.03;27.10
79198;BME280;68628;48.714;9.472;2023-07-31T08:53:48;97957.78;;;34.07;24.47
79198;BME280;68628;48.714;9.472;2023-07-31T08:56:15;97952.16;;;34.24;24.76
79198;BME280;68628;48.714;9.472;2023-07-31T08:58:54;97942.06;;;34.62;23.92
79198;BME280;68628;48.714;9.472;2023-07-31T09:01:35;97945.53;;;34.83;24.19
79198;BME280;68628;48.714;9.472;2023-07-31T09:04:13;97943.09;;;34.82;22.49
79198;BME280;68628;48.714;9.472;2023-07-31T09:06:49;97939.56;;;34.44;23.11
79198;BME280;68628;48.714;9.472;2023-07-31T09:09:21;97938.47;;;33.91;23.14
79198;BME280;68628;48.714;9.472;2023-07-31T09:11:55;97946.56;;;33.66;24.45
79198;BME280;68628;48.714;9.472;2023-07-31T09:14:29;97947.09;;;33.38;23.67
79198;BME280;68628;48.714;9.472;2023-07-31T09:17:03;97937.44;;;33.62;24.69
79198;BME280;68628;48.714;9.472;2023-07-31T09:19:39;97926.78;;;34.36;22.66
79198;BME280;68628;48.714;9.472;2023-07-31T09:22:11;97926.56;;;34.08;23.30
79198;BME280;68628;48.714;9.472;2023-07-31T09:24:41;97922.06;;;34.24;24.16
79198;BME280;68628;48.714;9.472;2023-07-31T09:27:13;97927.50;;;34.45;23.14
79198;BME280;68628;48.714;9.472;2023-07-31T09:29:48;97940.63;;;33.64;23.11
79198;BME280;68628;48.714;9.472;2023-07-31T09:32:31;97936.59;;;32.50;25.25
79198;BME280;68628;48.714;9.472;2023-07-31T09:37:43;97933.50;;;32.13;24.80
79198;BME280;68628;48.714;9.472;2023-07-31T09:40:28;97932.72;;;31.16;26.50
79198;BME280;68628;48.714;9.472;2023-07-31T09:43:12;97925.09;;;30.87;27.73
79198;BME280;68628;48.714;9.472;2023-07-31T09:45:55;97916.22;;;31.56;27.27
79198;BME280;68628;48.714;9.472;2023-07-31T09:48:43;97910.81;;;31.48;27.58
79198;BME280;68628;48.714;9.472;2023-07-31T09:51:35;97908.00;;;30.95;27.38
79198;BME280;68628;48.714;9.472;2023-07-31T09:54:16;97912.66;;;30.54;28.21
79198;BME280;68628;48.714;9.472;2023-07-31T09:57:00;97897.69;;;29.80;28.79
79198;BME280;68628;48.714;9.472;2023-07-31T09:59:32;97894.03;;;30.07;28.46
79198;BME280;68628;48.714;9.472;2023-07-31T10:02:15;97892.66;;;29.87;28.78
79198;BME280;68628;48.714;9.472;2023-07-31T10:04:57;97895.38;;;29.14;29.50
79198;BME280;68628;48.714;9.472;2023-07-31T10:07:56;97886.38;;;28.49;30.93
79198;BME280;68628;48.714;9.472;2023-07-31T10:10:29;97869.91;;;28.32;31.62
79198;BME280;68628;48.714;9.472;2023-07-31T10:12:59;97882.50;;;28.08;31.93
79198;BME280;68628;48.714;9.472;2023-07-31T10:15:37;97879.75;;;27.95;32.58
79198;BME280;68628;48.714;9.472;2023-07-31T10:18:20;97875.28;;;28.04;31.28
79198;BME280;68628;48.714;9.472;2023-07-31T10:21:06;97867.56;;;27.78;32.80
79198;BME280;68628;48.714;9.472;2023-07-31T10:23:33;97856.56;;;27.55;33.76
79198;BME280;68628;48.714;9.472;2023-07-31T10:26:17;97866.22;;;27.42;33.06
79198;BME280;68628;48.714;9.472;2023-07-31T10:28:54;97859.94;;;27.28;33.61
79198;BME280;68628;48.714;9.472;2023-07-31T10:31:22;97857.09;;;27.38;32.89
79198;BME280;68628;48.714;9.472;2023-07-31T10:33:58;97867.16;;;27.33;32.82
79198;BME280;68628;48.714;9.472;2023-07-31T10:36:28;97870.84;;;27.42;33.57
79198;BME280;68628;48.714;9.472;2023-07-31T10:39:02;97866.72;;;28.71;31.98
79198;BME280;68628;48.714;9.472;2023-07-31T10:41:43;97864.88;;;29.90;29.60
79198;BME280;68628;48.714;9.472;2023-07-31T10:44:22;97846.81;;;30.57;28.03
79198;BME280;68628;48.714;9.472;2023-07-31T10:47:25;97842.25;;;31.19;28.97
79198;BME280;68628;48.714;9.472;2023-07-31T10:50:40;97831.00;;;31.82;26.63
79198;BME280;68628;48.714;9.472;2023-07-31T10:53:32;97831.88;;;32.04;27.65
79198;BME280;68628;48.714;9.472;2023-07-31T10:56:13;97834.09;;;32.49;27.26
79198;BME280;68628;48.714;9.472;2023-07-31T10:59:00;97838.72;;;32.28;25.79
79198;BME280;68628;48.714;9.472;2023-07-31T11:01:55;97836.97;;;31.14;27.56
79198;BME280;68628;48.714;9.472;2023-07-31T11:04:27;97837.66;;;30.53;29.51
79198;BME280;68628;48.714;9.472;2023-07-31T11:06:59;97839.59;;;30.21;29.83
79198;BME280;68628;48.714;9.472;2023-07-31T11:09:42;97834.91;;;29.82;29.90
79198;BME280;68628;48.714;9.472;2023-07-31T11:12:43;97815.88;;;29.73;30.25
79198;BME280;68628;48.714;9.472;2023-07-31T11:15:32;97813.91;;;29.42;30.89
79198;BME280;68628;48.714;9.472;2023-07-31T11:18:29;97808.00;;;29.03;31.16
79198;BME280;68628;48.714;9.472;2023-07-31T11:21:36;97814.91;;;28.73;32.48
79198;BME280;68628;48.714;9.472;2023-07-31T11:24:15;97806.47;;;28.61;32.02
79198;BME280;68628;48.714;9.472;2023-07-31T11:26:52;97810.00;;;28.47;33.13
79198;BME280;68628;48.714;9.472;2023-07-31T11:29:19;97815.00;;;28.68;31.99
79198;BME280;68628;48.714;9.472;2023-07-31T11:31:47;97808.69;;;28.58;32.71
79198;BME280;68628;48.714;9.472;2023-07-31T11:34:15;97803.06;;;28.55;32.43
79198;BME280;68628;48.714;9.472;2023-07-31T11:36:52;97804.69;;;28.70;32.74
79198;BME280;68628;48.714;9.472;2023-07-31T11:39:20;97801.53;;;28.63;33.06
79198;BME280;68628;48.714;9.472;2023-07-31T11:41:47;97792.31;;;28.64;32.89
79198;BME280;68628;48.714;9.472;2023-07-31T11:44:13;97799.25;;;28.70;31.72
79198;BME280;68628;48.714;9.472;2023-07-31T11:46:39;97791.03;;;28.47;31.72
79198;BME280;68628;48.714;9.472;2023-07-31T11:49:05;97796.84;;;28.13;32.97
79198;BME280;68628;48.714;9.472;2023-07-31T11:51:32;97793.22;;;28.03;33.61
79198;BME280;68628;48.714;9.472;2023-07-31T11:54:01;97794.25;;;28.07;33.65
79198;BME280;68628;48.714;9.472;2023-07-31T11:56:29;97792.09;;;27.90;33.19
79198;BME280;68628;48.714;9.472;2023-07-31T11:58:58;97781.56;;;27.75;33.46
79198;BME280;68628;48.714;9.472;2023-07-31T12:01:28;97797.03;;;27.55;35.11
79198;BME280;68628;48.714;9.472;2023-07-31T12:03:56;97797.28;;;27.40;35.08
79198;BME280;68628;48.714;9.472;2023-07-31T12:06:33;97796.84;;;27.33;34.08
79198;BME280;68628;48.714;9.472;2023-07-31T12:09:04;97784.16;;;27.14;34.21
79198;BME280;68628;48.714;9.472;2023-07-31T12:11:30;97781.69;;;26.80;36.28
79198;BME280;68628;48.714;9.472;2023-07-31T12:13:56;97775.03;;;26.72;35.60
79198;BME280;68628;48.714;9.472;2023-07-31T12:16:26;97768.34;;;26.45;37.09
79198;BME280;68628;48.714;9.472;2023-07-31T12:18:54;97761.03;;;26.46;36.06
79198;BME280;68628;48.714;9.472;2023-07-31T12:21:20;97752.97;;;26.40;36.88
79198;BME280;68628;48.714;9.472;2023-07-31T12:23:46;97758.69;;;26.39;37.29
79198;BME280;68628;48.714;9.472;2023-07-31T12:26:14;97751.97;;;26.36;37.01
79198;BME280;68628;48.714;9.472;2023-07-31T12:28:47;97742.47;;;26.20;38.09
79198;BME280;68628;48.714;9.472;2023-07-31T12:33:43;97749.72;;;25.95;38.54
79198;BME280;68628;48.714;9.472;2023-07-31T12:36:13;97750.56;;;25.90;38.20
79198;BME280;68628;48.714;9.472;2023-07-31T12:38:42;97748.22;;;25.84;38.05
79198;BME280;68628;48.714;9.472;2023-07-31T12:41:09;97733.97;;;25.78;39.05
79198;BME280;68628;48.714;9.472;2023-07-31T12:43:37;97730.63;;;25.62;38.96
79198;BME280;68628;48.714;9.472;2023-07-31T12:46:06;97723.22;;;25.73;38.87
79198;BME280;68628;48.714;9.472;2023-07-31T12:48:34;97719.84;;;25.86;39.64
79198;BME280;68628;48.714;9.472;2023-07-31T12:51:00;97725.84;;;26.07;38.01
79198;BME280;68628;48.714;9.472;2023-07-31T12:53:27;97721.81;;;26.05;38.83
79198;BME280;68628;48.714;9.472;2023-07-31T12:55:55;97716.97;;;26.26;37.15
79198;BME280;68628;48.714;9.472;2023-07-31T12:58:21;97717.34;;;25.95;38.01
79198;BME280;68628;48.714;9.472;2023-07-31T13:00:48;97707.97;;;25.87;38.04
79198;BME280;68628;48.714;9.472;2023-07-31T13:03:14;97708.31;;;25.81;38.73
79198;BME280;68628;48.714;9.472;2023-07-31T13:05:40;97703.84;;;25.71;38.46
79198;BME280;68628;48.714;9.472;2023-07-31T13:08:07;97695.97;;;25.50;39.14
79198;BME280;68628;48.714;9.472;2023-07-31T13:10:33;97692.28;;;25.41;39.04
79198;BME280;68628;48.714;9.472;2023-07-31T13:12:59;97699.03;;;25.38;39.38
79198;BME280;68628;48.714;9.472;2023-07-31T13:15:25;97697.94;;;25.39;39.61
79198;BME280;68628;48.714;9.472;2023-07-31T13:17:51;97694.47;;;25.39;39.98
79198;BME280;68628;48.714;9.472;2023-07-31T13:20:17;97683.88;;;25.42;39.72
79198;BME280;68628;48.714;9.472;2023-07-31T13:22:43;97685.16;;;25.50;40.77
79198;BME280;68628;48.714;9.472;2023-07-31T13:25:09;97681.03;;;25.58;40.87
79198;BME280;68628;48.714;9.472;2023-07-31T13:27:36;97671.84;;;25.83;39.83
79198;BME280;68628;48.714;9.472;2023-07-31T13:30:02;97675.16;;;25.99;38.08